Terminal Aerodrome Forecast
Issued by NWS Jackson, KY

Home | Current Version | Previous Version | Text Only | Print | Product List | Glossary On
Versions: 1 2 3 4 5 6 7 8 9 10 11 12 13 14 15 16 17 18 19 20 21
000
FTUS43 KJKL 221316 AAB
TAFLOZ
TAF AMD
KLOZ 221316Z 2213/2312 VRB05KT 5SM -SHRA BKN007 OVC040
     FM221500 15004KT P6SM -SHRA OVC025
     FM221700 16004KT P6SM OVC035=

USA.gov is the U.S. government's official web portal to all federal, state and local government web resources and services.